Terminal Aerodrome Forecast
Issued by NWS

Home | Current Version | Previous Version | Text Only | Print | Product List | Glossary On
Versions: 1 2 3 4 5 6 7 8 9 10 11 12 13 14 15 16 17 18 19 20
000
FTUS41 KBOX 241741 RRA
TAFACK
TAF
KACK 241741Z 2418/2518 21011G20KT P6SM SKC
     FM250200 19010G18KT 5SM BR BKN045
     FM250900 17008KT 1/2SM FG BKN130
     FM251500 14012G22KT P6SM BKN020=

USA.gov is the U.S. government's official web portal to all federal, state and local government web resources and services.